Scroll down
FLIGHT INFORMATION
Alaska Airlines

ASA1107

At Arrival Gate

KSEA
 PAKT
DATE: 2021-11-07
GATE: N12
GATE DEPARTURE: 13:53
TAKEOFF: 12:11
DATE: 2021-11-08
GATE:  -
LANDING: 13:49
GATE ARRIVAL: 13:53
FLIGHT DATA
Crew: 
Speed: 
449 kts
Altitude: 
36,018 ft
Stage Length: 
589.8 nm
Block Time: 
1.8 hrs
Flight Time: 
1.6 hrs
Fuel Used: 
9,636 lb
Cleared Route: KSEA CAVOB RENBE RICHR TOMRE BANGR PANGL PR AGPAL TDNBG CFVZD ANN RW11
TRACK DATA
50,000 ft 1,000 kts
AIRCRAFT INFO AND CUMULATIVE STATS
Aircraft Type: 
B738SSW
Registration: 
SELCAL: 
BEGP
MSN/LN: 
41188 / 4045
Operator: 
Total Flights: 
6
Total Block Time: 
14.8 hrs
Total Flight Time: 
13.7 hrs
Total Fuel Used: 
79,706 lb
DATALINK LOG | Newest first | Current as of: 2022-09-25 17:17:05
LABEL SEQUENCE CONTENT Dn/Up
QA575613:53 7.4▼ Dn
A33829CLEARED TO PAKT VIA BANGR9 PANGL PR V309 ANN. SQUAWK 3735.▲ Up
2U3511PAKT 071253Z AUTO 00000KT 10SM SCT040 BKN070 02/02 A2969 RMK AO2 SLP056 P0001 T00170017 TSNO▲ Up
2S3827PAKT▼ Dn
Q03719[LINK ACK]▲ Up
Q03719[LINK TEST]▼ Dn
2U4357PAKT 071053Z AUTO 13003KT 10SM -RA FEW034 SCT041 OVC055 02/02 A2971 RMK AO2 RAB47 SLP062 P0000 T00220017 TSNO▲ Up
2U4357KSEA 071102Z 15007KT 10SM SCT029 OVC038 05/03 A3003 RMK AO2 T00500033 $▲ Up
2S4340KSEA PAKT▼ Dn
A34048CLEARED TO PAKT VIA BANGR9 PANGL PR V309 ANN. SQUAWK 3226.▲ Up
Q03937[LINK ACK]▲ Up
Q03937[LINK TEST]▼ Dn


AIRCRAFT HISTORY
FLIGHT DATE FLIGHT NO. ORIGIN DESTINATION CLEARED ROUTE BLOCK TIME FLIGHT TIME FUEL USED PILOT
2021-11-07ASA1107KSEA PAKT KSEA CAVOB RENBE RICHR TOMRE BANGR PANGL PR AGPAL TDNBG CFVZD ANN RW111.8 hrs1.6 hrs9,636 lbEphedrin
2020-12-24ASA2469KSTS KSEA KSTS TIKOY SNUPY KSEA1.4 hrs1.3 hrs10,163 lbMichael Backes
2020-12-10ASA2469KPDX KSTS KPDX RIVRR COSUG BISLE MINNE HISKU KSTS1.4 hrs1.3 hrs8,895 lbMichael Backes
2020-11-06ASA875KPSP KPDX KPDX UBG KPDX2 hrs1.9 hrs10,097 lbRyan Syferd
2020-11-02ASA1381KSEA KPSP KSEA SEA TAOMA SUMMA POWEL LKV BAARB HARTT PYRAM FMG RYANN YERIN BABIT OAL LIDAT BTY GFS KPSP2.6 hrs2.5 hrs12,412 lbRyan Syferd
2020-08-21ASA407KCHS KSEA KCHS IRQ BNA FAM MCI HCT CYS LAR DNJ BEAMO PDT KSEA5.4 hrs5.2 hrs28,502 lbRyan Syferd